Time;durP1;ratioP1;P1;durP2;ratioP2;P2;SDS_P1;SDS_P2;PMS_P1;PMS_P2;Temp;Humidity;BMP_temperature;BMP_pressure;BME280_temperature;BME280_humidity;BME280_pressure;Samples;Min_cycle;Max_cycle;Signal;HPM_P1;HPM_P2
2022/06/15 00:02:07;;;;;;;4.80;2.00;;;;;;;15.88;49.20;99517.13;235835;1203;139744;-57
2022/06/15 00:07:10;;;;;;;6.40;2.00;;;;;;;15.86;49.22;99512.88;235846;1202;139393;-58
2022/06/15 00:12:14;;;;;;;4.80;1.70;;;;;;;15.87;49.45;99517.05;235925;1202;138867;-57
2022/06/15 00:17:17;;;;;;;5.10;1.60;;;;;;;15.87;49.60;99522.03;235983;1202;140359;-57
2022/06/15 00:22:20;;;;;;;6.40;2.00;;;;;;;15.83;49.77;99530.95;235993;1203;138314;-58
2022/06/15 00:27:23;;;;;;;4.00;1.70;;;;;;;15.74;50.15;99529.84;235948;1202;139088;-58
2022/06/15 00:32:26;;;;;;;4.10;2.10;;;;;;;15.65;50.34;99537.61;234811;1202;138502;-59
2022/06/15 00:37:29;;;;;;;2.90;1.60;;;;;;;15.55;50.53;99534.11;235938;1202;138786;-60
2022/06/15 00:42:32;;;;;;;4.50;2.00;;;;;;;15.49;50.94;99539.73;235454;1203;139832;-59
2022/06/15 00:47:39;;;;;;;7.90;2.00;;;;;;;15.45;51.16;99537.88;235024;1202;138674;-59
2022/06/15 00:53:05;;;;;;;5.70;1.90;;;;;;;15.46;51.25;99532.80;235905;1202;138968;-60
2022/06/15 00:58:09;;;;;;;;;;;;;;;15.50;51.63;99533.70;236155;1202;139592;-61
2022/06/15 01:03:13;;;;;;;4.90;1.80;;;;;;;15.48;51.75;99529.95;235843;1203;125831;-61
2022/06/15 01:08:23;;;;;;;4.70;2.10;;;;;;;15.50;51.90;99538.04;235597;1203;138851;-60
2022/06/15 01:14:01;;;;;;;4.90;2.50;;;;;;;15.53;52.15;99537.44;235824;1203;138709;-60
2022/06/15 01:19:28;;;;;;;7.90;2.70;;;;;;;15.55;52.46;99539.23;235694;1202;138467;-61
2022/06/15 01:25:11;;;;;;;4.40;2.30;;;;;;;15.56;52.83;99543.50;235752;1202;139046;-59
2022/06/15 01:30:49;;;;;;;5.20;3.00;;;;;;;15.58;53.07;99540.44;235434;1204;138824;-60
2022/06/15 01:36:20;;;;;;;8.10;2.80;;;;;;;15.65;53.60;99543.55;235365;1204;138450;-60
2022/06/15 01:41:39;;;;;;;5.00;2.70;;;;;;;15.67;53.61;99539.11;235923;1203;138668;-58
2022/06/15 01:46:46;;;;;;;5.40;2.50;;;;;;;15.68;53.61;99529.73;235919;1203;138338;-58
2022/06/15 01:51:50;;;;;;;5.50;2.40;;;;;;;15.70;53.57;99529.20;235802;1202;138930;-59
2022/06/15 01:56:55;;;;;;;5.80;2.20;;;;;;;15.73;53.17;99528.63;235656;1203;141393;-58
2022/06/15 02:02:20;;;;;;;6.60;2.20;;;;;;;15.75;53.01;99521.86;235809;1202;138757;-56
2022/06/15 02:07:38;;;;;;;7.10;2.30;;;;;;;15.79;52.99;99522.98;235886;1202;139385;-61
2022/06/15 02:13:10;;;;;;;7.20;2.60;;;;;;;15.83;52.54;99524.31;235827;1202;138355;-61
2022/06/15 02:18:20;;;;;;;8.50;2.10;;;;;;;15.85;52.64;99535.05;235319;1205;138548;-59
2022/06/15 02:23:28;;;;;;;10.40;2.20;;;;;;;15.86;52.91;99529.13;235356;1205;138518;-59
2022/06/15 02:28:39;;;;;;;8.10;2.30;;;;;;;15.88;52.74;99531.98;235820;1203;139452;-57
2022/06/15 02:33:53;;;;;;;4.60;2.10;;;;;;;15.88;52.75;99528.42;235814;1203;139392;-58
2022/06/15 02:38:58;;;;;;;6.20;2.10;;;;;;;15.92;52.56;99529.21;235486;1204;139269;-60
2022/06/15 02:44:06;;;;;;;4.20;2.10;;;;;;;15.95;52.28;99523.98;235526;1204;139173;-60
2022/06/15 02:49:10;;;;;;;5.40;2.80;;;;;;;15.93;52.06;99520.15;235619;1203;138328;-59
2022/06/15 02:54:22;;;;;;;5.80;2.00;;;;;;;15.97;52.11;99525.52;235748;1203;139610;-60
2022/06/15 02:59:28;;;;;;;8.50;2.40;;;;;;;15.99;51.91;99522.90;234247;1203;138196;-60
2022/06/15 03:04:31;;;;;;;4.90;2.00;;;;;;;15.99;52.05;99521.63;235702;1203;138461;-61
2022/06/15 03:09:34;;;;;;;3.80;2.20;;;;;;;15.97;52.19;99520.73;235510;1203;139501;-61
2022/06/15 03:14:42;;;;;;;3.90;1.90;;;;;;;15.98;52.16;99526.58;235507;1204;139048;-58
2022/06/15 03:19:49;;;;;;;8.00;2.60;;;;;;;15.97;51.98;99527.34;235738;1204;138904;-59
2022/06/15 03:24:52;;;;;;;5.20;2.10;;;;;;;15.96;51.89;99524.44;235686;1203;140960;-58
2022/06/15 03:29:55;;;;;;;7.00;2.20;;;;;;;15.95;51.86;99527.85;235760;1203;138833;-56
2022/06/15 03:35:01;;;;;;;5.90;2.20;;;;;;;15.94;51.55;99535.25;235770;1203;140267;-58
2022/06/15 03:40:08;;;;;;;7.10;2.00;;;;;;;15.98;51.49;99543.95;234622;1203;139255;-59
2022/06/15 03:45:13;;;;;;;10.20;2.30;;;;;;;16.01;51.78;99543.54;235812;1203;138592;-58
2022/06/15 03:50:16;;;;;;;7.80;2.50;;;;;;;16.06;51.58;99544.95;235655;1203;138687;-58
2022/06/15 03:55:23;;;;;;;9.10;5.40;;;;;;;16.12;51.73;99542.48;235562;1203;138331;-58
2022/06/15 04:00:29;;;;;;;74.40;62.30;;;;;;;16.19;52.51;99541.59;234901;1204;138255;-58
2022/06/15 04:05:44;;;;;;;7.40;4.70;;;;;;;16.38;53.74;99536.04;235453;1205;139260;-58
2022/06/15 04:10:50;;;;;;;10.40;3.10;;;;;;;16.61;53.74;99540.14;235552;1205;138514;-57
2022/06/15 04:15:54;;;;;;;8.10;4.30;;;;;;;16.69;53.25;99544.27;235534;1205;139452;-57
2022/06/15 04:21:01;;;;;;;21.30;9.20;;;;;;;16.81;53.47;99541.98;235826;1203;138771;-59
2022/06/15 04:26:04;;;;;;;6.50;2.70;;;;;;;16.83;53.30;99543.92;235876;1203;138542;-59
2022/06/15 04:31:14;;;;;;;7.70;2.60;;;;;;;16.72;52.95;99543.73;235688;1203;138958;-59
2022/06/15 04:36:17;;;;;;;10.90;3.10;;;;;;;16.64;53.08;99551.31;235575;1202;138377;-60
2022/06/15 04:41:25;;;;;;;52.60;39.90;;;;;;;16.62;53.42;99548.11;235940;1203;139457;-59
2022/06/15 04:46:28;;;;;;;39.40;29.00;;;;;;;16.77;53.71;99540.58;235847;1202;138948;-60
2022/06/15 04:51:40;;;;;;;9.60;4.20;;;;;;;17.24;54.52;99535.98;235871;1203;139151;-59
2022/06/15 04:56:44;;;;;;;10.80;4.60;;;;;;;17.50;52.69;99530.77;235730;1203;138392;-60
2022/06/15 05:01:49;;;;;;;10.90;4.50;;;;;;;17.84;53.42;99536.23;235611;1203;138895;-59
2022/06/15 05:06:53;;;;;;;34.10;24.50;;;;;;;18.13;52.68;99535.36;235739;1203;138556;-59
2022/06/15 05:11:57;;;;;;;8.70;3.00;;;;;;;18.18;51.57;99531.16;235674;1203;138835;-58
2022/06/15 05:17:00;;;;;;;6.90;3.10;;;;;;;17.99;51.01;99536.95;235611;1204;139475;-59
2022/06/15 05:22:04;;;;;;;10.40;3.20;;;;;;;17.69;50.70;99538.92;235746;1203;139107;-60
2022/06/15 05:27:08;;;;;;;9.10;3.20;;;;;;;17.49;50.60;99540.20;235728;1203;139172;-57
2022/06/15 05:32:15;;;;;;;418.10;362.60;;;;;;;17.34;50.67;99546.83;235258;1204;139219;-59
2022/06/15 05:37:19;;;;;;;48.00;37.10;;;;;;;17.25;51.27;99546.84;235799;1202;139620;-60
2022/06/15 05:42:26;;;;;;;13.20;5.10;;;;;;;17.23;51.53;99551.80;235684;1204;139729;-57
2022/06/15 05:47:31;;;;;;;6.30;2.70;;;;;;;17.22;51.73;99558.90;235771;1203;138689;-57
2022/06/15 05:52:40;;;;;;;87.30;65.20;;;;;;;17.19;52.05;99558.59;235507;1203;139042;-57
2022/06/15 05:57:43;;;;;;;22.80;13.20;;;;;;;17.20;51.84;99556.90;235697;1203;138896;-57
2022/06/15 06:02:46;;;;;;;9.60;2.40;;;;;;;17.28;51.43;99558.27;235789;1203;139036;-60
2022/06/15 06:07:50;;;;;;;18.10;3.50;;;;;;;17.33;51.47;99555.34;235378;1204;138878;-57
2022/06/15 06:12:53;;;;;;;10.70;2.20;;;;;;;17.40;51.36;99556.35;235926;1204;139403;-60
2022/06/15 06:17:56;;;;;;;91.70;70.00;;;;;;;17.51;50.89;99556.86;235725;1203;139557;-58
2022/06/15 06:22:59;;;;;;;12.20;6.50;;;;;;;17.67;50.92;99563.61;235620;1203;139878;-57
2022/06/15 06:28:02;;;;;;;8.90;2.30;;;;;;;18.08;51.77;99558.63;235850;1203;139372;-59
2022/06/15 06:33:05;;;;;;;7.70;2.00;;;;;;;18.17;50.33;99569.31;235007;1204;139814;-59
2022/06/15 06:38:08;;;;;;;6.60;2.30;;;;;;;18.18;50.15;99572.89;235750;1204;139272;-60
2022/06/15 06:43:12;;;;;;;34.90;23.50;;;;;;;18.19;49.58;99582.10;235752;1204;138829;-60
2022/06/15 06:48:16;;;;;;;7.90;3.10;;;;;;;18.19;49.36;99577.98;235298;1204;138882;-56
2022/06/15 06:53:19;;;;;;;7.60;2.40;;;;;;;18.25;48.94;99580.39;235690;1203;138525;-55
2022/06/15 06:58:22;;;;;;;9.20;2.20;;;;;;;18.27;48.93;99570.88;235816;1203;138620;-57
2022/06/15 07:03:25;;;;;;;14.50;2.80;;;;;;;18.30;48.86;99567.34;235757;1202;138846;-59
2022/06/15 07:08:28;;;;;;;8.20;1.90;;;;;;;18.34;48.75;99571.81;235714;1204;138550;-57
2022/06/15 07:13:31;;;;;;;7.50;2.00;;;;;;;18.41;48.78;99573.41;235784;1202;138666;-57
2022/06/15 07:18:34;;;;;;;8.00;2.20;;;;;;;18.46;48.68;99573.53;235233;1204;138963;-56
2022/06/15 07:23:39;;;;;;;9.90;2.30;;;;;;;18.55;48.66;99580.42;235718;1204;138513;-61
2022/06/15 07:28:42;;;;;;;10.50;1.90;;;;;;;18.60;48.47;99570.83;235857;1204;139231;-58
2022/06/15 07:33:51;;;;;;;10.90;3.00;;;;;;;18.67;48.07;99570.39;235685;1204;139128;-58
2022/06/15 07:38:56;;;;;;;14.40;2.30;;;;;;;18.69;47.88;99566.13;235724;1204;138682;-58
2022/06/15 07:43:59;;;;;;;14.20;2.50;;;;;;;18.73;47.72;99569.91;235719;1203;140521;-59
2022/06/15 07:54:26;;;;;;;12.90;4.20;;;;;;;18.88;48.47;99556.23;235744;1202;139329;-57
2022/06/15 07:59:29;;;;;;;11.40;3.10;;;;;;;19.41;49.85;99561.90;235739;1203;138569;-57
2022/06/15 08:04:31;;;;;;;12.80;3.00;;;;;;;19.82;49.58;99555.64;235857;1203;139675;-57
2022/06/15 08:09:35;;;;;;;12.90;2.50;;;;;;;20.08;49.14;99548.91;235719;1204;139681;-57
2022/06/15 08:14:47;;;;;;;12.60;2.10;;;;;;;20.37;48.62;99551.46;235654;1203;139137;-57
2022/06/15 08:19:56;;;;;;;9.90;2.30;;;;;;;20.50;48.00;99547.52;235609;1203;139723;-58
2022/06/15 08:25:02;;;;;;;6.80;1.90;;;;;;;20.69;47.68;99554.04;235663;1204;139995;-59
2022/06/15 08:30:09;;;;;;;6.60;1.70;;;;;;;20.76;47.06;99543.46;235808;1203;138371;-59
2022/06/15 08:35:13;;;;;;;11.10;2.00;;;;;;;20.78;46.45;99544.10;235860;1204;139336;-63
2022/06/15 08:40:17;;;;;;;4.70;1.70;;;;;;;20.60;45.82;99542.28;235821;1204;139039;-58
2022/06/15 08:45:40;;;;;;;8.10;2.10;;;;;;;20.45;45.68;99543.45;235488;1204;139337;-57
2022/06/15 08:50:52;;;;;;;9.70;2.20;;;;;;;20.29;45.12;99541.35;235714;1204;138646;-56
2022/06/15 08:56:07;;;;;;;46.70;32.60;;;;;;;20.24;45.32;99551.75;235683;1203;139208;-57
2022/06/15 09:02:01;;;;;;;17.40;10.90;;;;;;;20.27;45.32;99545.52;235731;1202;138804;-57
2022/06/15 09:07:22;;;;;;;8.90;3.60;;;;;;;20.46;45.47;99551.34;235488;1203;139087;-56
2022/06/15 09:12:58;;;;;;;10.80;3.70;;;;;;;20.49;45.00;99547.79;235737;1203;139158;-56
2022/06/15 09:18:07;;;;;;;12.00;5.20;;;;;;;20.72;45.10;99553.33;235620;1202;139034;-57
2022/06/15 09:23:46;;;;;;;13.40;5.30;;;;;;;20.88;45.12;99539.73;235697;1203;138627;-56
2022/06/15 09:28:58;;;;;;;8.70;2.40;;;;;;;21.01;44.26;99542.27;235487;1204;138449;-58
2022/06/15 09:34:04;;;;;;;6.30;2.30;;;;;;;20.96;43.72;99537.16;235939;1203;138709;-58
2022/06/15 09:39:07;;;;;;;5.60;2.00;;;;;;;20.95;43.22;99541.89;235688;1203;138925;-58
2022/06/15 09:44:36;;;;;;;9.30;2.20;;;;;;;21.03;43.28;99534.11;235641;1203;141099;-57
2022/06/15 09:49:59;;;;;;;7.50;2.30;;;;;;;21.23;43.53;99531.77;235724;1204;138377;-58
2022/06/15 09:55:27;;;;;;;7.10;2.30;;;;;;;21.37;43.40;99525.80;235732;1203;161677;-57
2022/06/15 10:00:30;;;;;;;8.40;2.20;;;;;;;21.59;43.53;99514.02;235778;1203;139237;-58
2022/06/15 10:05:38;;;;;;;9.90;5.30;;;;;;;21.77;43.12;99524.12;235783;1203;139318;-57
2022/06/15 10:10:48;;;;;;;12.90;3.70;;;;;;;21.92;43.17;99523.25;235833;1203;137982;-56
2022/06/15 10:16:03;;;;;;;6.40;2.40;;;;;;;22.16;43.30;99521.72;235772;1203;138747;-56
2022/06/15 10:21:18;;;;;;;8.70;3.20;;;;;;;22.42;42.82;99512.59;235760;1203;138619;-56
2022/06/15 10:26:32;;;;;;;10.10;5.80;;;;;;;22.54;42.00;99514.59;235755;1202;139022;-57
2022/06/15 10:31:35;;;;;;;6.60;2.90;;;;;;;22.67;41.50;99506.50;235400;1204;139605;-57
2022/06/15 10:36:39;;;;;;;6.90;2.20;;;;;;;22.73;40.86;99500.69;235713;1203;138337;-58
2022/06/15 10:41:47;;;;;;;30.30;22.70;;;;;;;22.61;40.68;99500.09;235746;1202;139185;-57
2022/06/15 10:47:20;;;;;;;10.90;4.20;;;;;;;22.62;40.82;99491.85;235868;1203;139100;-58
2022/06/15 10:52:32;;;;;;;13.70;2.70;;;;;;;22.58;40.59;99485.54;235890;1203;139252;-57
2022/06/15 11:03:25;;;;;;;33.10;23.30;;;;;;;22.75;40.53;99478.22;235718;1203;138679;-57
2022/06/15 11:08:33;;;;;;;12.80;4.10;;;;;;;22.86;40.65;99477.15;234451;1204;139185;-58
2022/06/15 11:13:41;;;;;;;7.00;2.50;;;;;;;22.96;40.79;99477.61;235853;1203;139362;-58
2022/06/15 11:19:03;;;;;;;6.60;2.20;;;;;;;23.36;40.27;99479.82;235686;1203;138444;-58
2022/06/15 11:24:24;;;;;;;6.80;3.40;;;;;;;23.53;40.07;99474.89;235697;1202;139229;-58
2022/06/15 11:29:45;;;;;;;6.90;2.80;;;;;;;23.85;40.34;99473.05;235599;1202;139300;-58
2022/06/15 11:35:05;;;;;;;19.70;12.90;;;;;;;23.98;39.94;99465.94;235733;1202;139815;-58
2022/06/15 11:40:25;;;;;;;11.30;3.60;;;;;;;23.84;39.66;99461.96;235672;1203;138960;-58
2022/06/15 11:45:39;;;;;;;51.00;38.80;;;;;;;23.72;39.72;99462.54;235703;1203;140072;-57
2022/06/15 11:50:53;;;;;;;8.30;3.20;;;;;;;23.57;39.48;99460.79;235657;1202;140191;-56
2022/06/15 11:56:28;;;;;;;10.90;2.30;;;;;;;23.47;39.61;99460.71;235687;1203;139016;-58
2022/06/15 12:01:31;;;;;;;;;;;;;;;23.43;39.24;99452.96;235832;1202;138889;-57
2022/06/15 12:07:00;;;;;;;5.80;1.90;;;;;;;23.36;39.26;99453.61;235707;1203;126828;-58
2022/06/15 12:12:37;;;;;;;5.20;2.10;;;;;;;23.33;39.16;99455.53;235565;1204;138185;-57
2022/06/15 12:17:46;;;;;;;12.00;2.50;;;;;;;23.37;39.37;99449.47;235683;1203;138968;-58
2022/06/15 12:22:56;;;;;;;17.90;12.00;;;;;;;23.58;39.46;99438.22;235834;1203;138975;-58
2022/06/15 12:28:19;;;;;;;7.90;3.30;;;;;;;23.60;39.41;99443.33;235861;1202;139242;-57
2022/06/15 12:33:49;;;;;;;7.90;2.40;;;;;;;23.49;39.40;99445.06;235755;1203;138429;-58
2022/06/15 12:39:10;;;;;;;18.40;7.20;;;;;;;23.47;39.54;99442.98;235831;1203;139811;-58
2022/06/15 12:44:40;;;;;;;8.40;2.70;;;;;;;23.71;39.69;99435.77;235704;1203;139679;-60
2022/06/15 12:50:06;;;;;;;7.00;3.20;;;;;;;24.16;39.59;99427.37;235735;1203;138508;-60
2022/06/15 12:55:08;;;;;;;;;;;;;;;24.43;39.25;99417.58;235819;1202;138652;-58
2022/06/15 13:00:26;;;;;;;4.70;2.00;;;;;;;24.63;39.13;99419.95;235737;1203;126027;-58
2022/06/15 13:05:35;;;;;;;11.50;4.40;;;;;;;24.85;38.60;99419.82;235843;1202;139473;-58
2022/06/15 13:11:10;;;;;;;8.40;2.50;;;;;;;24.87;38.37;99415.46;235843;1203;139808;-58
2022/06/15 13:16:34;;;;;;;8.00;2.20;;;;;;;24.87;38.13;99415.66;235444;1203;138830;-59
2022/06/15 13:22:07;;;;;;;15.50;9.60;;;;;;;24.99;38.21;99417.47;235117;1202;139512;-58
2022/06/15 13:27:21;;;;;;;7.50;2.60;;;;;;;25.31;38.36;99406.54;235775;1203;138719;-54
2022/06/15 13:33:07;;;;;;;6.40;2.10;;;;;;;25.52;37.69;99408.70;235575;1203;138853;-57
2022/06/15 13:38:28;;;;;;;;;;;;;;;25.63;37.60;99406.59;235869;1202;139388;-58
2022/06/15 13:43:39;;;;;;;8.50;2.30;;;;;;;25.86;37.29;99402.86;235804;1202;125238;-55
2022/06/15 13:48:45;;;;;;;7.10;1.80;;;;;;;26.05;37.18;99392.55;235637;1203;139539;-56
2022/06/15 13:54:10;;;;;;;9.50;2.90;;;;;;;26.41;37.10;99398.59;235805;1203;139292;-58
2022/06/15 13:59:41;;;;;;;23.30;13.30;;;;;;;26.54;36.69;99388.42;235926;1203;139426;-56
2022/06/15 14:05:22;;;;;;;4.00;2.40;;;;;;;26.56;36.42;99387.60;235826;1203;138866;-55
2022/06/15 14:10:54;;;;;;;5.30;2.50;;;;;;;26.62;36.21;99381.09;235929;1201;138438;-55
2022/06/15 14:16:30;;;;;;;5.40;2.00;;;;;;;26.68;36.24;99379.60;235875;1201;139130;-57
2022/06/15 14:21:37;;;;;;;39.50;34.60;;;;;;;26.80;35.69;99389.00;235748;1203;139202;-55
2022/06/15 14:26:46;;;;;;;7.50;4.40;;;;;;;26.93;35.17;99380.29;233528;1201;138843;-54
2022/06/15 14:31:55;;;;;;;4.40;2.20;;;;;;;26.92;34.53;99377.77;235802;1202;138675;-55
2022/06/15 14:37:10;;;;;;;8.20;2.30;;;;;;;26.80;34.26;99377.98;235766;1203;138853;-57
2022/06/15 14:42:20;;;;;;;8.10;2.60;;;;;;;26.66;34.30;99373.52;233705;1203;139755;-55
2022/06/15 14:47:27;;;;;;;9.30;3.70;;;;;;;26.52;34.74;99369.98;234893;1202;138748;-56
2022/06/15 14:52:34;;;;;;;6.50;2.70;;;;;;;26.20;34.60;99366.76;235874;1203;139784;-57
2022/06/15 14:57:40;;;;;;;7.80;2.50;;;;;;;25.94;34.77;99362.63;234228;1204;138321;-54
2022/06/15 15:02:47;;;;;;;13.20;7.50;;;;;;;25.69;34.86;99355.41;235562;1203;138431;-56
2022/06/15 15:08:06;;;;;;;7.60;2.80;;;;;;;25.42;35.30;99351.25;235846;1202;139055;-58
2022/06/15 15:13:25;;;;;;;7.70;2.50;;;;;;;25.25;35.58;99347.60;235629;1203;139528;-56
2022/06/15 15:18:39;;;;;;;15.90;2.30;;;;;;;25.00;35.66;99339.14;235765;1203;138220;-57
2022/06/15 15:23:44;;;;;;;117.50;96.50;;;;;;;24.84;35.92;99338.80;235583;1203;139521;-58
2022/06/15 15:34:31;;;;;;;7.90;2.60;;;;;;;24.70;36.47;99333.41;235997;1203;139205;-55
2022/06/15 15:39:34;;;;;;;5.00;2.10;;;;;;;24.64;36.16;99332.58;235431;1204;140531;-56
2022/06/15 15:44:38;;;;;;;9.20;2.40;;;;;;;24.63;35.84;99331.47;235502;1203;142733;-57
2022/06/15 15:49:41;;;;;;;8.10;2.40;;;;;;;24.54;35.83;99314.58;235426;1204;138953;-56
2022/06/15 15:54:50;;;;;;;7.40;2.10;;;;;;;24.42;36.06;99323.41;235536;1202;139688;-57
2022/06/15 15:59:53;;;;;;;9.80;2.50;;;;;;;24.29;36.22;99320.63;235613;1203;138774;-57
2022/06/15 16:04:58;;;;;;;5.40;2.20;;;;;;;24.21;36.48;99321.77;235705;1203;138857;-55
2022/06/15 16:10:05;;;;;;;;;;;;;;;24.09;36.73;99322.31;236043;1202;139264;-57
2022/06/15 16:15:09;;;;;;;5.10;2.10;;;;;;;24.04;36.94;99325.65;235854;1202;125051;-57
2022/06/15 16:20:17;;;;;;;6.10;2.20;;;;;;;23.99;37.07;99320.89;235716;1202;139255;-55
2022/06/15 16:25:22;;;;;;;5.80;2.30;;;;;;;23.96;37.14;99322.34;235762;1203;139015;-57
2022/06/15 16:30:27;;;;;;;6.50;2.20;;;;;;;23.90;37.23;99317.16;235631;1203;139303;-57
2022/06/15 16:35:33;;;;;;;15.40;8.20;;;;;;;23.90;37.31;99311.69;235695;1203;139211;-57
2022/06/15 16:40:36;;;;;;;9.30;2.50;;;;;;;23.87;37.40;99299.67;236024;1202;140365;-57
2022/06/15 16:45:40;;;;;;;7.70;2.50;;;;;;;23.92;37.49;99304.27;235500;1203;138791;-57
2022/06/15 16:50:44;;;;;;;8.20;2.40;;;;;;;23.90;37.66;99297.83;235594;1202;140266;-58
2022/06/15 16:55:48;;;;;;;8.70;2.50;;;;;;;23.85;37.74;99305.23;235775;1203;138853;-57
2022/06/15 17:00:51;;;;;;;6.60;2.80;;;;;;;23.77;37.78;99298.55;235818;1203;138740;-58
2022/06/15 17:05:59;;;;;;;6.30;2.60;;;;;;;23.75;38.14;99300.73;235654;1203;138681;-56
2022/06/15 17:11:17;;;;;;;8.60;2.50;;;;;;;23.70;38.46;99294.95;235644;1203;139050;-56
2022/06/15 17:16:20;;;;;;;5.70;2.20;;;;;;;23.69;38.63;99300.36;235789;1203;139285;-56
2022/06/15 17:21:24;;;;;;;8.40;2.50;;;;;;;23.61;38.82;99292.64;235632;1203;139559;-57
2022/06/15 17:26:30;;;;;;;8.00;2.40;;;;;;;23.57;39.18;99292.79;235829;1201;138717;-56
2022/06/15 17:31:35;;;;;;;7.10;2.50;;;;;;;23.50;39.14;99288.48;235753;1203;139630;-57
2022/06/15 17:36:39;;;;;;;6.30;2.40;;;;;;;23.48;39.14;99289.94;235670;1203;140313;-57
2022/06/15 17:41:46;;;;;;;6.30;2.40;;;;;;;23.45;39.09;99293.04;235741;1203;139076;-57
2022/06/15 17:46:50;;;;;;;9.40;6.40;;;;;;;23.44;39.06;99297.48;235962;1202;138918;-58
2022/06/15 17:51:53;;;;;;;74.90;52.80;;;;;;;23.32;39.44;99297.82;235888;1203;138755;-57
2022/06/15 17:57:04;;;;;;;25.40;18.10;;;;;;;23.31;40.29;99301.70;235610;1203;139821;-55
2022/06/15 18:02:10;;;;;;;17.60;13.20;;;;;;;23.24;41.12;99296.83;235741;1203;140034;-56
2022/06/15 18:07:14;;;;;;;12.20;6.40;;;;;;;23.23;41.41;99300.79;235685;1203;139062;-58
2022/06/15 18:12:17;;;;;;;7.70;3.20;;;;;;;23.18;41.15;99303.32;235804;1203;138839;-56
2022/06/15 18:17:23;;;;;;;8.00;2.80;;;;;;;23.11;41.04;99309.50;235568;1203;138190;-57
2022/06/15 18:22:27;;;;;;;9.30;2.80;;;;;;;23.00;40.99;99304.51;235428;1205;138735;-54
2022/06/15 18:27:30;;;;;;;6.70;2.50;;;;;;;22.92;40.89;99308.70;235658;1203;139756;-57
2022/06/15 18:32:43;;;;;;;7.20;3.00;;;;;;;22.80;40.77;99311.57;235879;1202;139330;-57
2022/06/15 18:37:50;;;;;;;7.10;2.70;;;;;;;22.70;41.01;99317.93;235648;1203;139303;-57
2022/06/15 18:42:53;;;;;;;7.50;2.80;;;;;;;22.54;41.00;99308.73;235632;1202;139865;-55
2022/06/15 18:47:56;;;;;;;93.50;70.60;;;;;;;22.46;41.23;99312.90;235593;1203;140215;-55
2022/06/15 18:53:03;;;;;;;10.20;4.60;;;;;;;22.38;41.56;99312.11;235837;1203;140483;-56
2022/06/15 18:58:09;;;;;;;12.20;3.60;;;;;;;22.25;41.67;99329.41;235983;1203;141936;-57
2022/06/15 19:03:12;;;;;;;11.20;3.60;;;;;;;22.05;41.82;99332.80;235689;1203;139292;-57
2022/06/15 19:08:18;;;;;;;7.80;3.10;;;;;;;21.88;41.84;99346.98;235748;1203;138973;-57
2022/06/15 19:13:21;;;;;;;10.90;2.90;;;;;;;21.71;41.77;99352.35;235520;1203;138944;-57
2022/06/15 19:18:28;;;;;;;6.50;2.70;;;;;;;21.56;41.89;99355.38;235558;1203;139574;-58
2022/06/15 19:23:32;;;;;;;7.60;3.10;;;;;;;21.41;42.11;99357.33;235566;1203;138768;-58
2022/06/15 19:28:35;;;;;;;10.30;3.20;;;;;;;21.29;42.49;99359.19;235595;1203;138861;-57
2022/06/15 19:33:38;;;;;;;7.30;2.90;;;;;;;21.17;42.69;99359.49;235619;1204;139142;-57
2022/06/15 19:38:41;;;;;;;7.60;2.80;;;;;;;21.08;42.80;99363.52;235634;1203;139659;-58
2022/06/15 19:43:45;;;;;;;7.10;3.00;;;;;;;20.97;43.06;99360.08;235596;1203;138512;-59
2022/06/15 19:48:48;;;;;;;10.30;2.80;;;;;;;20.88;43.26;99364.23;235704;1203;138646;-54
2022/06/15 19:53:51;;;;;;;6.90;3.20;;;;;;;20.78;43.56;99362.83;235806;1203;139720;-59
2022/06/15 19:58:54;;;;;;;10.50;3.70;;;;;;;20.67;43.74;99365.63;235812;1203;139841;-58
2022/06/15 20:03:58;;;;;;;9.00;3.80;;;;;;;20.53;44.08;99364.77;235915;1203;139258;-59
2022/06/15 20:09:03;;;;;;;15.60;4.40;;;;;;;20.44;44.44;99371.10;235838;1202;139040;-58
2022/06/15 20:14:06;;;;;;;;;;;;;;;20.33;44.65;99371.76;234865;1204;138921;-59
2022/06/15 20:19:09;;;;;;;10.10;4.30;;;;;;;20.22;44.90;99376.64;235755;1203;126095;-59
2022/06/15 20:24:13;;;;;;;9.60;4.40;;;;;;;20.10;45.22;99366.80;235746;1204;139862;-61
2022/06/15 20:29:20;;;;;;;11.10;4.30;;;;;;;20.02;45.45;99373.52;235778;1203;139027;-57
2022/06/15 20:34:23;;;;;;;9.70;4.40;;;;;;;19.94;45.67;99377.75;235831;1202;139043;-59
2022/06/15 20:39:26;;;;;;;8.10;4.20;;;;;;;19.83;45.84;99388.23;235803;1202;139185;-58
2022/06/15 20:44:31;;;;;;;8.40;4.30;;;;;;;19.73;46.23;99384.42;235756;1204;138603;-59
2022/06/15 20:49:40;;;;;;;10.50;4.20;;;;;;;19.65;46.46;99385.54;235731;1202;138783;-59
2022/06/15 20:54:43;;;;;;;7.90;4.40;;;;;;;19.54;46.52;99382.31;235751;1204;138965;-57
2022/06/15 20:59:45;;;;;;;16.80;4.90;;;;;;;19.45;46.92;99375.28;235742;1203;138677;-59
2022/06/15 21:04:48;;;;;;;12.60;4.40;;;;;;;19.36;47.10;99372.19;235825;1204;139340;-61
2022/06/15 21:20:36;;;;;;;7.20;4.40;;;;;;;19.16;47.61;99374.04;235801;1203;138609;-58
2022/06/15 21:25:39;;;;;;;8.10;4.00;;;;;;;19.07;47.62;99363.16;235753;1203;139073;-60
2022/06/15 21:30:44;;;;;;;9.60;4.50;;;;;;;19.03;47.67;99373.95;235015;1204;139095;-57
2022/06/15 21:35:47;;;;;;;11.30;4.20;;;;;;;18.98;48.01;99384.55;235555;1203;138500;-58
2022/06/15 21:40:50;;;;;;;7.40;3.90;;;;;;;18.93;47.89;99386.05;235754;1203;139440;-58
2022/06/15 21:45:53;;;;;;;11.80;4.70;;;;;;;18.86;48.13;99376.54;235334;1203;139088;-57
2022/06/15 21:50:56;;;;;;;9.70;4.90;;;;;;;18.79;48.17;99377.38;235756;1203;138922;-58
2022/06/15 21:55:59;;;;;;;9.70;4.40;;;;;;;18.72;48.50;99371.20;235740;1203;138411;-57
2022/06/15 22:01:02;;;;;;;12.10;4.80;;;;;;;18.62;48.56;99366.98;235777;1202;138511;-57
2022/06/15 22:06:06;;;;;;;8.60;4.50;;;;;;;18.53;48.55;99362.62;235768;1203;138725;-58
2022/06/15 22:11:09;;;;;;;8.90;4.50;;;;;;;18.45;48.93;99363.05;235718;1204;138336;-57
2022/06/15 22:16:12;;;;;;;8.40;4.90;;;;;;;18.37;49.05;99362.51;235848;1204;138338;-59
2022/06/15 22:21:18;;;;;;;10.30;4.10;;;;;;;18.30;49.16;99361.30;235806;1204;138380;-59
2022/06/15 22:26:21;;;;;;;8.40;4.50;;;;;;;18.22;49.62;99352.11;235787;1204;140442;-60
2022/06/15 22:31:24;;;;;;;12.70;4.20;;;;;;;18.18;49.49;99346.19;235580;1203;138674;-58
2022/06/15 22:36:28;;;;;;;7.20;4.30;;;;;;;18.16;49.97;99340.98;234630;1203;141623;-58
2022/06/15 22:41:31;;;;;;;6.80;4.00;;;;;;;18.18;49.99;99344.77;235730;1202;139895;-59
2022/06/15 22:46:35;;;;;;;9.70;4.70;;;;;;;18.18;49.88;99340.42;235943;1203;138569;-55
2022/06/15 22:51:38;;;;;;;10.80;4.40;;;;;;;18.23;49.87;99338.59;235716;1202;138722;-55
2022/06/15 22:56:41;;;;;;;7.30;4.20;;;;;;;18.30;49.90;99344.45;235709;1204;140720;-57
2022/06/15 23:01:44;;;;;;;8.20;4.10;;;;;;;18.32;50.03;99343.34;235808;1203;139343;-60
2022/06/15 23:06:48;;;;;;;8.10;4.50;;;;;;;18.33;49.68;99329.83;235745;1204;139919;-58
2022/06/15 23:11:50;;;;;;;9.70;3.80;;;;;;;18.34;49.80;99333.83;235692;1203;138659;-59
2022/06/15 23:16:53;;;;;;;10.00;3.90;;;;;;;18.36;49.89;99334.53;235775;1204;138922;-58
2022/06/15 23:21:56;;;;;;;6.70;3.60;;;;;;;18.35;49.88;99335.67;235873;1203;138625;-55
2022/06/15 23:26:59;;;;;;;8.90;4.10;;;;;;;18.36;49.75;99335.81;235625;1204;138428;-56
2022/06/15 23:32:03;;;;;;;8.30;3.70;;;;;;;18.34;49.66;99334.48;235458;1203;139119;-58
2022/06/15 23:37:06;;;;;;;8.30;4.20;;;;;;;18.33;49.72;99331.55;235831;1203;138273;-58
2022/06/15 23:42:09;;;;;;;8.30;4.00;;;;;;;18.32;49.68;99336.51;234959;1204;138284;-57
2022/06/15 23:47:25;;;;;;;8.90;4.00;;;;;;;18.31;49.89;99336.58;235734;1203;138375;-59
2022/06/15 23:52:28;;;;;;;7.60;4.10;;;;;;;18.29;49.78;99328.73;235924;1203;138339;-60
2022/06/15 23:57:31;;;;;;;7.90;4.30;;;;;;;18.23;49.72;99326.42;235765;1204;138671;-57
